Terminal Aerodrome Forecast
Issued by NWS Knoxville/Tri Cities, TN

Home | Current Version | Previous Version | Text Only | Print | Product List | Glossary On
Versions: 1 2 3 4 5 6 7 8 9 10 11 12 13 14 15 16 17
000
FTUS44 KMRX 251126
TAFTYS
TAF
KTYS 251126Z 2512/2612 23010KT P6SM SCT040 BKN070
     FM251400 23015G20KT P6SM VCSH OVC040
     FM251600 23018G26KT P6SM -RA OVC040
     FM252200 24015G20KT P6SM BKN040
     FM260200 23006KT P6SM FEW040=

USA.gov is the U.S. government's official web portal to all federal, state and local government web resources and services.